TFFF

Martinique Aimé Césaire International Airport

Fort-de-France, Martinique
TAF TFFF 252300Z 2600/2624 VRB03KT 9999 SCT020 BKN040 TEMPO 2600/2610 3000 SHRA BKN018TCU BECMG 2612/2615 06013KT
Issued Valid From Valid To
Apr-25 @ 23:00 UTC
(5 hours ago)
Apr-26 @ 00:00 UTC
(4 hours ago)
Apr-27 @ 00:00 UTC
(in 20 hours)
Apr-26 @ 00:00 to Apr-26 @ 12:00
TAF TFFF 252300Z 2600/2624 VRB03KT 9999 SCT020 BKN040
Wind Visibility Clouds
Variable at 3 knots 10,000+ meters
  • Scattered at 2,000' AGL
  • Broken at 4,000' AGL
Temporary Apr-26 @ 00:00 to Apr-26 @ 10:00
TEMPO 2600/2610 3000 SHRA BKN018TCU
Visibility Clouds Conditions
2,993 meters
  • Broken at 1,800' AGL
  • Rain
Becoming Apr-26 @ 12:00 to Apr-27 @ 00:00
BECMG 2612/2615 06013KT
Wind Visibility Clouds
60° at 13 knots 10,000+ meters
  • Scattered at 2,000' AGL
  • Broken at 4,000' AGL
TAF TFFF 252300Z 2600/2624 VRB03KT 9999 SCT020 BKN040 TEMPO 2600/2610 3000 SHRA BKN018TCU BECMG 2612/2615 06013KT
Issued Apr-25 @ 23:00 UTC
(5 hours ago)
Valid From Apr-26 @ 00:00 UTC
(4 hours ago)
Valid To Apr-27 @ 00:00 UTC
(in 20 hours)
Apr-26 @ 00:00 - Apr-26 @ 12:00
Wind Visibility
Variable at 3 knots 10,000+ meters
Clouds
  • Scattered at 2,000' AGL
  • Broken at 4,000' AGL
Temporary Apr-26 @ 00:00 - Apr-26 @ 10:00
Clouds
  • Broken at 1,800' AGL
Conditions
  • Rain
Becoming Apr-26 @ 12:00 - Apr-27 @ 00:00
Wind Visibility
60° at 13 knots 10,000+ meters
Clouds
  • Scattered at 2,000' AGL
  • Broken at 4,000' AGL